createdAt,value
2023-03-24T00:01:54.734Z,98193.34
2023-03-24T00:06:58.098Z,98202.94
2023-03-24T00:12:00.786Z,98192.72
2023-03-24T00:17:03.564Z,98179.25
2023-03-24T00:22:08.325Z,98183.97
2023-03-24T00:27:13.838Z,98183.00
2023-03-24T00:32:17.711Z,98160.53
2023-03-24T00:37:20.476Z,98133.09
2023-03-24T00:42:24.801Z,98135.59
2023-03-24T00:47:27.434Z,98143.19
2023-03-24T00:52:34.214Z,98131.81
2023-03-24T00:57:37.212Z,98138.47
2023-03-24T01:02:40.427Z,98159.84
2023-03-24T01:07:43.501Z,98148.69
2023-03-24T01:12:46.239Z,98137.50
2023-03-24T01:17:49.439Z,98149.84
2023-03-24T01:22:52.612Z,98139.53
2023-03-24T01:27:55.413Z,98133.34
2023-03-24T01:32:58.281Z,98121.72
2023-03-24T01:38:01.193Z,98121.31
2023-03-24T01:43:05.108Z,98111.59
2023-03-24T01:48:27.183Z,98116.91
2023-03-24T01:53:34.263Z,98108.22
2023-03-24T01:58:41.262Z,98087.88
2023-03-24T02:03:53.070Z,98107.38
2023-03-24T02:09:01.593Z,98092.59
2023-03-24T02:14:07.282Z,98081.31
2023-03-24T02:19:48.162Z,98072.41
2023-03-24T02:25:37.102Z,98069.63
2023-03-24T02:30:49.539Z,98067.50
2023-03-24T02:36:32.358Z,98067.84
2023-03-24T02:41:55.388Z,98051.88
2023-03-24T02:46:57.803Z,98057.97
2023-03-24T02:52:18.857Z,98059.69
2023-03-24T02:57:47.365Z,98050.88
2023-03-24T03:03:34.820Z,98039.91
2023-03-24T03:08:39.138Z,98040.28
2023-03-24T03:14:03.047Z,98036.78
2023-03-24T03:19:12.820Z,97980.66
2023-03-24T03:24:27.019Z,98004.06
2023-03-24T03:29:37.076Z,98020.25
2023-03-24T03:34:48.676Z,98016.88
2023-03-24T03:40:09.962Z,98026.09
2023-03-24T03:45:16.286Z,98014.47
2023-03-24T03:50:19.356Z,98006.16
2023-03-24T03:55:22.513Z,98017.38
2023-03-24T04:00:26.298Z,98015.81
2023-03-24T04:06:02.054Z,98022.78
2023-03-24T04:11:39.211Z,97995.09
2023-03-24T04:17:43.885Z,98005.28
2023-03-24T04:23:14.718Z,98012.00
2023-03-24T04:28:33.258Z,98004.34
2023-03-24T04:33:41.833Z,97996.69
2023-03-24T04:38:53.418Z,98006.19
2023-03-24T04:44:11.229Z,97986.03
2023-03-24T04:49:27.432Z,98002.06
2023-03-24T04:54:30.224Z,97996.31
2023-03-24T04:59:40.735Z,97994.94
2023-03-24T05:04:44.140Z,98001.94
2023-03-24T05:10:12.865Z,97993.31
2023-03-24T05:15:23.742Z,98000.13
2023-03-24T05:20:32.500Z,97993.94
2023-03-24T05:25:47.156Z,97993.13
2023-03-24T05:30:51.712Z,98002.06
2023-03-24T05:36:13.068Z,98003.97
2023-03-24T05:41:17.485Z,97996.94
2023-03-24T05:46:20.634Z,97989.94
2023-03-24T05:51:24.952Z,97997.91
2023-03-24T05:56:36.968Z,97993.16
2023-03-24T06:01:53.819Z,98007.03
2023-03-24T06:07:03.158Z,98004.03
2023-03-24T06:12:09.999Z,97997.28
2023-03-24T06:17:16.404Z,97993.94
2023-03-24T06:22:21.735Z,98001.44
2023-03-24T06:27:26.340Z,97997.09
2023-03-24T06:32:29.963Z,97984.91
2023-03-24T06:37:33.368Z,97991.00
2023-03-24T06:42:37.937Z,97996.53
2023-03-24T06:47:41.162Z,97980.09
2023-03-24T06:52:44.063Z,97992.03
2023-03-24T06:57:48.978Z,97990.84
2023-03-24T07:03:04.009Z,97989.81
2023-03-24T07:08:34.098Z,97997.75
2023-03-24T07:13:34.539Z,98002.97
2023-03-24T07:18:40.284Z,97996.25
2023-03-24T07:23:43.406Z,97987.53
2023-03-24T07:28:51.718Z,98004.84
2023-03-24T07:34:06.597Z,98011.03
2023-03-24T07:39:13.303Z,98015.94
2023-03-24T07:44:16.305Z,98016.97
2023-03-24T07:49:26.374Z,98030.84
2023-03-24T07:54:40.905Z,98027.19
2023-03-24T07:59:44.514Z,98023.63
2023-03-24T08:04:54.198Z,98010.03
2023-03-24T08:10:24.183Z,98024.00
2023-03-24T08:15:28.420Z,98037.63
2023-03-24T08:20:31.108Z,98039.69
2023-03-24T08:25:36.422Z,98031.84
2023-03-24T08:30:43.704Z,98031.75
2023-03-24T08:35:47.189Z,98024.16
2023-03-24T08:40:50.294Z,98047.28
2023-03-24T08:45:53.074Z,98025.56
2023-03-24T08:50:56.799Z,98051.16
2023-03-24T08:55:59.522Z,98046.00
2023-03-24T09:01:02.391Z,98049.56
2023-03-24T09:06:05.270Z,98062.19
2023-03-24T09:11:13.982Z,98051.78
2023-03-24T09:16:23.504Z,98053.81
2023-03-24T09:21:26.515Z,98059.63
2023-03-24T09:26:29.164Z,98049.44
2023-03-24T09:31:31.874Z,98070.78
2023-03-24T09:36:34.463Z,98075.97
2023-03-24T09:41:37.231Z,98084.41
2023-03-24T09:46:54.736Z,98084.66
2023-03-24T09:52:05.832Z,98085.66
2023-03-24T09:57:27.523Z,98098.09
2023-03-24T10:02:31.786Z,98100.66
2023-03-24T10:07:43.311Z,98095.00
2023-03-24T10:12:49.720Z,98096.53
2023-03-24T10:18:19.894Z,98106.09
2023-03-24T10:23:37.387Z,98107.09
2023-03-24T10:29:01.951Z,98099.78
2023-03-24T10:34:06.312Z,98098.47
2023-03-24T10:39:20.055Z,98112.41
2023-03-24T10:44:27.120Z,98108.31
2023-03-24T10:49:31.397Z,98121.25
2023-03-24T10:54:34.085Z,98121.09
2023-03-24T10:59:45.997Z,98128.03
2023-03-24T11:04:59.114Z,98114.75
2023-03-24T11:10:08.341Z,98127.03
2023-03-24T11:15:24.545Z,98110.53
2023-03-24T11:20:32.349Z,98113.66
2023-03-24T11:25:39.081Z,98124.72
2023-03-24T11:31:12.024Z,98128.38
2023-03-24T11:36:40.278Z,98142.38
2023-03-24T11:42:07.579Z,98147.53
2023-03-24T11:47:38.628Z,98142.50
2023-03-24T11:52:50.800Z,98147.03
2023-03-24T11:58:06.708Z,98161.78
2023-03-24T12:03:28.178Z,98168.72
2023-03-24T12:09:07.447Z,98177.34
2023-03-24T12:14:12.382Z,98177.88
2023-03-24T12:19:48.524Z,98179.97
2023-03-24T12:25:04.388Z,98172.63
2023-03-24T12:30:26.064Z,98179.44
2023-03-24T12:35:43.338Z,98194.53
2023-03-24T12:41:12.962Z,98188.25
2023-03-24T12:46:34.152Z,98190.06
2023-03-24T12:52:05.338Z,98180.78
2023-03-24T12:57:14.663Z,98183.47
2023-03-24T13:02:32.667Z,98192.72
2023-03-24T13:07:39.359Z,98189.59
2023-03-24T13:13:02.726Z,98186.91
2023-03-24T13:18:38.723Z,98166.34
2023-03-24T13:24:12.953Z,98194.78
2023-03-24T13:29:48.410Z,98200.72
2023-03-24T13:35:29.014Z,98197.84
2023-03-24T13:40:35.111Z,98210.69
2023-03-24T13:45:37.720Z,98216.59
2023-03-24T13:50:53.485Z,98207.91
2023-03-24T13:55:56.265Z,98213.16
2023-03-24T14:01:11.336Z,98222.75
2023-03-24T14:06:18.554Z,98222.47
2023-03-24T14:11:41.532Z,98225.13
2023-03-24T14:17:08.763Z,98231.94
2023-03-24T14:22:34.605Z,98237.41
2023-03-24T14:27:44.057Z,98248.34
2023-03-24T14:32:49.995Z,98235.53
2023-03-24T14:38:00.106Z,98251.16
2023-03-24T14:43:13.689Z,98247.78
2023-03-24T14:48:52.849Z,98250.69
2023-03-24T14:53:59.540Z,98250.69
2023-03-24T14:59:11.068Z,98270.53
2023-03-24T15:04:13.972Z,98284.88
2023-03-24T15:09:18.335Z,98292.88
2023-03-24T15:14:25.280Z,98296.44
2023-03-24T15:19:31.083Z,98295.88
2023-03-24T15:24:38.433Z,98312.38
2023-03-24T15:29:43.421Z,98322.97
2023-03-24T15:34:53.402Z,98316.00
2023-03-24T15:40:05.216Z,98320.50
2023-03-24T15:50:40.773Z,98325.72
2023-03-24T15:55:43.690Z,98341.34
2023-03-24T16:00:46.437Z,98347.38
2023-03-24T16:05:51.724Z,98347.75
2023-03-24T16:11:07.896Z,98355.25
2023-03-24T16:16:13.575Z,98365.09
2023-03-24T16:21:22.691Z,98352.66
2023-03-24T16:26:32.957Z,98373.09
2023-03-24T16:31:35.760Z,98380.81
2023-03-24T16:36:38.474Z,98387.56
2023-03-24T16:41:41.059Z,98387.41
2023-03-24T16:46:46.555Z,98379.81
2023-03-24T16:51:50.576Z,98400.06
2023-03-24T16:56:53.236Z,98389.94
2023-03-24T17:02:05.737Z,98399.09
2023-03-24T17:07:08.683Z,98406.16
2023-03-24T17:12:11.320Z,98398.06
2023-03-24T17:17:13.896Z,98396.16
2023-03-24T17:22:19.691Z,98388.13
2023-03-24T17:27:22.267Z,98410.56
2023-03-24T17:32:31.920Z,98408.31
2023-03-24T17:37:34.552Z,98429.78
2023-03-24T17:42:38.934Z,98430.13
2023-03-24T17:47:41.908Z,98435.44
2023-03-24T17:52:47.913Z,98428.81
2023-03-24T17:57:50.538Z,98446.91
2023-03-24T18:02:53.309Z,98437.50
2023-03-24T18:07:56.195Z,98453.06
2023-03-24T18:12:58.800Z,98436.16
2023-03-24T18:18:01.673Z,98448.25
2023-03-24T18:23:04.554Z,98459.53
2023-03-24T18:28:07.565Z,98446.06
2023-03-24T18:33:10.863Z,98454.75
2023-03-24T18:38:15.288Z,98451.34
2023-03-24T18:43:17.927Z,98460.84
2023-03-24T18:48:20.702Z,98455.03
2023-03-24T18:53:23.623Z,98445.59
2023-03-24T18:58:26.247Z,98450.75
2023-03-24T19:03:29.705Z,98446.50
2023-03-24T19:08:35.058Z,98438.81
2023-03-24T19:13:38.057Z,98449.97
2023-03-24T19:18:41.301Z,98439.84
2023-03-24T19:23:44.842Z,98448.34
2023-03-24T19:28:47.552Z,98434.75
2023-03-24T19:33:52.336Z,98434.81
2023-03-24T19:38:54.999Z,98436.47
2023-03-24T19:43:57.851Z,98428.84
2023-03-24T19:49:00.710Z,98433.09
2023-03-24T19:54:03.377Z,98435.78
2023-03-24T19:59:06.053Z,98439.97
2023-03-24T20:04:09.382Z,98428.94
2023-03-24T20:09:13.211Z,98399.94
2023-03-24T20:14:17.084Z,98428.91
2023-03-24T20:19:20.153Z,98403.34
2023-03-24T20:24:23.091Z,98412.72
2023-03-24T20:29:26.322Z,98400.78
2023-03-24T20:34:29.828Z,98405.75
2023-03-24T20:39:33.314Z,98405.88
2023-03-24T20:44:36.024Z,98388.72
2023-03-24T20:49:39.227Z,98386.94
2023-03-24T20:54:41.863Z,98373.28
2023-03-24T20:59:44.486Z,98390.28
2023-03-24T21:04:47.151Z,98372.25
2023-03-24T21:09:49.806Z,98373.84
2023-03-24T21:14:52.505Z,98373.00
2023-03-24T21:19:55.078Z,98380.63
2023-03-24T21:24:59.389Z,98385.69
2023-03-24T21:30:02.459Z,98379.66
2023-03-24T21:35:07.413Z,98377.06
2023-03-24T21:40:10.713Z,98375.47
2023-03-24T21:45:17.181Z,98383.97
2023-03-24T21:50:23.339Z,98386.50
2023-03-24T21:55:27.111Z,98370.22
2023-03-24T22:00:30.622Z,98369.47
2023-03-24T22:05:34.001Z,98369.34
2023-03-24T22:10:37.069Z,98358.97
2023-03-24T22:15:39.647Z,98349.53
2023-03-24T22:20:42.374Z,98341.69
2023-03-24T22:25:44.977Z,98347.72
2023-03-24T22:30:47.612Z,98346.00
2023-03-24T22:35:54.891Z,98342.59
2023-03-24T22:41:02.899Z,98339.31
2023-03-24T22:46:05.918Z,98329.22
2023-03-24T22:51:09.367Z,98336.28
2023-03-24T22:56:12.313Z,98324.28
2023-03-24T23:01:15.178Z,98334.72
2023-03-24T23:06:17.801Z,98325.44
2023-03-24T23:11:20.500Z,98329.69
2023-03-24T23:16:23.144Z,98317.69
2023-03-24T23:21:27.297Z,98324.63
2023-03-24T23:26:30.325Z,98328.06
2023-03-24T23:31:33.028Z,98326.44
2023-03-24T23:36:35.758Z,98317.06
2023-03-24T23:41:38.298Z,98300.72
2023-03-24T23:46:41.057Z,98309.25
2023-03-24T23:51:43.683Z,98299.78
2023-03-24T23:56:47.125Z,98301.38
